Last 30 Days

Pozo Rd (SLO-9)

Daily Data | America/Los_Angeles
as of 5/18/21 2:51 AM PDT
Date Daily Max Temp (°F) Time of Max Temp Daily Min Temp (°F) Time of Min Temp Daily Rain (In) Monthly Rain (In) Seasonal Rainfall (In) Wind Spd (mph) Daily Max Wind (mph) Time of Max Wind Daily ETo (in) 7 Day ETo (in) Daily Solar Rad (Cal/cm2) Dew Pt (°F) Max RH (%) Min RH (%) Hrs 70-85F (hrs) Hrs > 95F (hrs) Powdery Mildew Stress (pts) GDDs (DL) GDDs (Mx/Mn) Seas GDDs (DL) Seas GDDs (Smpl) Max Inversion (°F) Max Inversion Time Min Inversion (°F) Min Inversion Time Hrs <= 32F (hrs) Hrs <= 28F (hrs) Chilling <=45F (hrs) Bat Volt Min Day (V)
5/17/21 75.8 1542 37.3 0057 0.00 0.00 10.44 2.9 13.8 1352 0.181 1.26 622 46.1 95 34 3.55 0.00 70 8.0 6.5 386 192 6.8 2324 -6.5 1339 0.0 0.0 3.2 12.6
5/16/21 64.5 1537 41.7 0008 0.00 0.00 10.44 3.1 13.8 1426 0.126 1.29 484 45.4 96 55 0.00 0.00 80 4.4 3.1 378 185 4.8 2352 -6.8 1434 0.0 0.0 2.6 12.6
5/15/21 58.3 1618 42.4 0154 0.00 0.00 10.44 3.4 14.2 1417 0.091 1.39 368 44.3 95 62 0.00 0.00 90 1.3 0.3 374 182 1.9 0153 -5.6 1618 0.0 0.0 1.3 12.5
5/14/21 77.5 1433 31.1 0555 0.00 0.00 10.44 2.5 15.2 1538 0.195 1.52 669 42.3 96 37 4.97 0.00 100 8.0 4.3 373 182 6.1 0519 -6.3 1433 1.0 0.0 9.4 12.4
5/13/21 84.6 1253 33.4 0539 0.00 0.00 10.44 2.5 14.5 1436 0.220 1.53 660 41.8 96 26 8.97 0.00 90 12.2 9.0 365 178 7.0 0220 -6.1 1258 0.0 0.0 8.9 12.4
5/12/21 86.5 1316 36.0 0621 0.00 0.00 10.44 2.4 14.5 1411 0.223 1.53 654 43.4 94 25 5.21 0.00 100 13.7 11.3 352 169 7.5 2146 -6.2 1349 0.0 0.0 8.3 12.4
5/11/21 85.3 1219 34.2 0532 0.00 0.00 10.44 2.5 12.5 1227 0.227 1.54 651 43.3 97 25 10.10 0.00 100 13.9 9.7 339 157 7.2 2318 -6.2 1306 0.0 0.0 7.9 12.4
5/10/21 79.6 1204 34.9 0504 0.00 0.00 10.44 2.7 14.5 1420 0.207 1.55 658 43.3 93 26 8.18 0.00 90 11.0 7.3 325 148 6.1 0107 -7.2 1323 0.0 0.0 7.8 12.4
5/9/21 83.0 1327 31.6 0558 0.00 0.00 10.44 2.9 16.5 1449 0.231 1.57 651 37.2 91 20 9.68 0.00 70 13.0 7.3 314 140 8.7 2308 -5.9 1326 0.5 0.0 8.2 12.4
5/8/21 87.0 1646 29.8 0604 0.00 0.00 10.44 2.3 16.5 1234 0.218 1.55 656 36.2 96 13 5.47 0.00 80 13.5 8.4 301 133 10.0 2057 -4.9 1048 2.2 0.0 8.9 12.4
5/7/21 76.5 1409 34.3 0605 0.00 0.00 10.44 2.9 17.2 1319 0.201 1.55 640 37.5 97 11 6.24 0.00 60 9.1 5.4 287 125 9.1 2020 -6.5 1337 0.0 0.0 9.7 12.4
5/6/21 81.2 1401 34.7 0527 0.00 0.00 10.44 2.6 12.8 1321 0.219 1.58 670 42.7 95 28 9.18 0.00 40 12.1 8.0 278 119 7.6 2221 -5.5 1402 0.0 0.0 7.5 12.4
5/5/21 90.1 1154 39.6 0608 0.00 0.00 10.44 1.9 12.8 1223 0.234 1.59 671 42.2 92 18 3.45 0.00 50 16.1 14.9 266 111 7.8 2049 -5.8 1510 0.0 0.0 7.6 12.4
5/4/21 88.5 1254 34.1 0622 0.00 0.00 10.44 2.4 15.8 1310 0.236 1.58 665 40.5 93 19 4.59 0.00 60 15.4 11.3 250 96 7.4 2100 -4.7 1325 0.0 0.0 6.7 12.4
5/3/21 84.6 1546 32.3 0622 0.00 0.00 10.44 3.1 17.2 1539 0.234 1.52 672 39.8 95 18 9.05 0.00 40 13.2 8.4 235 85 11.8 2143 -5.2 1249 0.0 0.0 7.9 12.5
5/2/21 78.9 1439 27.5 0609 0.00 0.00 10.44 3.9 21.5 1410 0.209 1.45 653 38.9 98 22 6.65 0.00 20 10.8 3.2 221 77 9.4 2358 -5.8 1445 5.2 0.4 8.2 12.4
5/1/21 83.2 1442 34.1 0059 0.00 0.00 10.44 3.9 22.5 1505 0.216 1.31 626 41.4 94 24 7.03 0.00 0 10.7 8.6 210 74 8.3 2132 -4.2 1106 0.0 0.0 10.0 12.4
4/30/21 89.8 1337 32.7 0629 0.00 0.00 10.44 2.3 13.2 1622 0.229 1.25 661 40.2 94 21 4.18 0.00 10 14.2 11.2 200 65 9.5 2000 -4.4 1148 0.0 0.0 8.9 12.4
4/29/21 90.9 1447 29.4 0547 0.00 0.00 10.44 2.5 12.8 1419 0.236 1.14 675 38.7 96 17 3.58 0.00 20 14.4 10.1 186 54 11.7 2017 -4.6 1444 3.6 0.0 8.3 12.4
4/28/21 82.0 1559 26.4 0603 0.00 0.00 10.44 2.8 14.8 1537 0.223 1.03 676 35.3 97 11 8.57 0.00 0 11.2 4.2 171 44 10.1 2047 -5.3 1325 4.2 1.5 10.0 12.4
4/27/21 67.6 1423 28.4 0622 0.00 0.00 10.44 3.0 16.8 1603 0.173 0.89 651 36.4 98 26 0.00 0.00 0 4.9 0.0 160 39 10.9 0015 -5.5 1456 3.7 0.0 11.5 12.4
4/26/21 63.6 1405 33.5 0051 0.00 0.00 10.44 3.3 17.8 1554 0.162 0.89 656 39.8 95 38 0.00 0.00 0 2.9 0.0 155 39 6.9 2113 -6.1 1327 0.0 0.0 5.9 12.5
4/25/21 59.2 1336 29.6 0133 0.00 0.00 10.44 2.2 12.5 1419 0.070 0.95 249 40.4 96 56 0.00 0.00 10 1.6 0.0 152 39 5.0 0131 -3.3 1309 2.3 0.0 7.9 12.5
4/24/21 64.0 1351 31.6 0032 0.00 0.00 10.44 3.3 14.5 1435 0.153 1.10 606 39.8 98 39 0.00 0.00 20 3.4 0.0 150 39 5.7 2221 -5.5 1347 0.2 0.0 12.0 12.6
4/23/21 62.0 1423 36.1 0019 0.00 0.00 10.44 3.1 17.2 1331 0.118 1.15 502 42.5 97 52 0.00 0.00 30 2.0 0.0 147 39 5.0 2342 -5.7 1421 0.0 0.0 12.6 12.6
4/22/21 62.8 1537 33.5 2221 0.00 0.00 10.44 3.4 14.5 1410 0.135 1.21 573 42.8 97 51 0.00 0.00 40 2.6 0.0 145 39 6.8 2218 -5.1 1355 0.0 0.0 10.4 12.6
4/21/21 57.5 1539 35.5 2231 0.00 0.00 10.44 2.9 12.8 1317 0.079 1.25 338 43.4 97 67 0.00 0.00 50 1.2 0.0 142 39 4.6 2205 -4.4 1427 0.0 0.0 5.7 12.5
4/20/21 71.0 1237 29.0 0542 0.00 0.00 10.44 3.3 14.5 1425 0.171 1.29 627 40.3 97 32 0.39 0.00 60 5.5 0.0 141 39 7.9 0336 -4.5 1237 2.8 0.0 10.8 12.4
4/19/21 82.7 1353 30.6 0540 0.00 0.00 10.44 2.6 13.8 1512 0.221 1.23 656 35.6 92 13 8.80 0.00 40 11.8 6.6 136 39 11.8 2006 -4.1 1323 1.2 0.0 10.0 12.4
4/18/21 82.9 1434 28.6 0625 0.00 0.00 10.44 2.8 15.5 1509 0.221 1.19 645 35.6 97 13 8.59 0.00 20 11.9 5.8 124 33 11.7 2009 -3.8 1209 3.2 0.0 9.7 12.4
Max 90.9 - 42.4 - 0.00 0.00 - 3.9 22.5 - 0.236 - 676 46.1 98 67 10.10 0.00 - 16.1 14.9 - - 11.8 - -3.3 - 5.2 1.5 12.6 12.6
Avg - - - - - 0.00 - 2.8 - - - - - 40.6 - - 4.55 0.00 - 9.1 5.5 - - - - - - 1.0 0.1 8.3 -
Min 57.5 - 26.4 - 0.00 0.00 - 1.9 12.5 - 0.070 - 249 35.3 91 11 0.00 0.00 - 1.2 0.0 - - 1.9 - -7.2 - 0.0 0.0 1.3 12.4
Total - - - - - - - - - - - - - - - - 136.43 0.00 - 274.4 165.0 - - - - - - 30.2 1.9 248.0 -